Time;durP1;ratioP1;P1;durP2;ratioP2;P2;SDS_P1;SDS_P2;PMS_P1;PMS_P2;Temp;Humidity;BMP_temperature;BMP_pressure;BME280_temperature;BME280_humidity;BME280_pressure;Samples;Min_cycle;Max_cycle;Signal;HPM_P1;HPM_P2
2023/01/07 00:01:33;;;;;;;;;;;13.00;99.90;;;;;;7344471;19;108476;-93
2023/01/07 00:04:00;;;;;;;;;;;12.90;99.90;;;;;;7347171;19;111224;-92
2023/01/07 00:06:29;;;;;;;;;;;12.90;99.90;;;;;;7347003;19;108372;-93
2023/01/07 00:08:56;;;;;;;;;;;12.90;99.90;;;;;;7346779;19;108516;-93
2023/01/07 00:11:28;;;;;;;;;;;12.90;99.90;;;;;;7345887;19;109251;-92
2023/01/07 00:13:56;;;;;;;;;;;12.80;99.90;;;;;;7351547;19;112043;-92
2023/01/07 00:16:24;;;;;;;;;;;12.80;99.90;;;;;;7344410;19;109315;-92
2023/01/07 00:18:52;;;;;;;;;;;12.70;99.90;;;;;;7343876;19;111780;-93
2023/01/07 00:21:20;;;;;;;;;;;12.70;99.90;;;;;;7345576;19;108706;-93
2023/01/07 00:23:47;;;;;;;;;;;12.70;99.90;;;;;;7347296;19;111772;-94
2023/01/07 00:26:15;;;;;;;;;;;12.70;99.90;;;;;;7344904;19;108827;-92
2023/01/07 00:28:44;;;;;;;;;;;12.70;99.90;;;;;;7344921;19;108489;-93
2023/01/07 00:31:12;;;;;;;;;;;12.70;99.90;;;;;;7345041;19;109534;-92
2023/01/07 00:36:26;;;;;;;;;;;12.60;99.90;;;;;;7346446;19;111832;-92
2023/01/07 00:38:56;;;;;;;;;;;12.50;99.90;;;;;;7344846;19;110161;-93
2023/01/07 00:41:23;;;;;;;;;;;12.50;99.90;;;;;;7346151;19;108384;-94
2023/01/07 00:43:50;;;;;;;;;;;12.50;99.90;;;;;;7345595;19;109218;-93
2023/01/07 00:46:17;;;;;;;;;;;12.50;99.90;;;;;;7345913;19;110492;-93
2023/01/07 00:48:45;;;;;;;;;;;12.50;99.90;;;;;;7346501;19;108447;-93
2023/01/07 00:51:13;;;;;;;;;;;12.50;99.90;;;;;;7344814;19;108734;-93
2023/01/07 00:53:40;;;;;;;;;;;12.50;99.90;;;;;;7345238;19;111584;-93
2023/01/07 00:56:10;;;;;;;;;;;12.50;99.90;;;;;;7351517;19;109066;-92
2023/01/07 00:58:37;;;;;;;;;;;12.50;99.90;;;;;;7343603;19;111379;-93
2023/01/07 01:01:04;;;;;;;;;;;12.40;99.90;;;;;;7343160;19;108485;-93
2023/01/07 01:03:32;;;;;;;;;;;12.40;99.90;;;;;;7347423;19;108618;-93
2023/01/07 01:06:11;;;;;;;;;;;12.40;99.90;;;;;;7345257;19;113827;-93
2023/01/07 01:08:39;;;;;;;;;;;12.40;99.90;;;;;;7343741;19;110478;-93
2023/01/07 01:11:07;;;;;;;;;;;12.40;99.90;;;;;;7345229;19;109158;-93
2023/01/07 01:13:34;;;;;;;;;;;12.40;99.90;;;;;;7345884;19;113001;-93
2023/01/07 01:16:01;;;;;;;;;;;12.40;99.90;;;;;;7347153;19;108464;-93
2023/01/07 01:18:28;;;;;;;;;;;12.40;99.90;;;;;;7349406;19;109048;-93
2023/01/07 01:20:55;;;;;;;;;;;12.30;99.90;;;;;;7343495;19;108548;-92
2023/01/07 01:23:22;;;;;;;;;;;12.30;99.90;;;;;;7345685;19;109135;-93
2023/01/07 01:25:49;;;;;;;;;;;12.30;99.90;;;;;;7344128;19;112655;-92
2023/01/07 01:28:16;;;;;;;;;;;12.30;99.90;;;;;;7345773;19;108355;-92
2023/01/07 01:30:43;;;;;;;;;;;12.30;99.90;;;;;;7350391;19;109131;-93
2023/01/07 01:33:10;;;;;;;;;;;12.30;99.90;;;;;;7350433;19;109096;-92
2023/01/07 01:35:40;;;;;;;;;;;12.30;99.90;;;;;;7350413;19;108682;-92
2023/01/07 01:38:07;;;;;;;;;;;12.30;99.90;;;;;;7349950;19;110564;-93
2023/01/07 01:40:34;;;;;;;;;;;12.20;99.90;;;;;;7354401;19;110053;-93
2023/01/07 01:43:01;;;;;;;;;;;12.20;99.90;;;;;;7350379;19;112111;-93
2023/01/07 01:45:28;;;;;;;;;;;12.20;99.90;;;;;;7349971;19;112956;-92
2023/01/07 01:47:58;;;;;;;;;;;12.30;99.90;;;;;;7350634;19;108602;-93
2023/01/07 01:50:27;;;;;;;;;;;12.20;99.90;;;;;;7352598;19;108427;-93
2023/01/07 01:53:05;;;;;;;;;;;12.20;99.90;;;;;;7350081;19;112882;-92
2023/01/07 01:55:37;;;;;;;;;;;12.20;99.90;;;;;;7347663;19;108729;-92
2023/01/07 01:58:06;;;;;;;;;;;12.20;99.90;;;;;;7349982;19;108583;-93
2023/01/07 02:00:33;;;;;;;;;;;12.20;99.90;;;;;;7349921;19;110570;-93
2023/01/07 02:03:01;;;;;;;;;;;12.20;99.90;;;;;;7356418;19;111882;-93
2023/01/07 02:05:30;;;;;;;;;;;12.20;99.90;;;;;;7348250;19;111952;-93
2023/01/07 02:07:58;;;;;;;;;;;12.20;99.90;;;;;;7350948;19;108508;-93
2023/01/07 02:10:25;;;;;;;;;;;12.20;99.90;;;;;;7350227;19;109006;-92
2023/01/07 02:12:52;;;;;;;;;;;12.20;99.90;;;;;;7349313;19;109077;-92
2023/01/07 02:15:19;;;;;;;;;;;12.20;99.90;;;;;;7348735;19;108618;-93
2023/01/07 02:17:55;;;;;;;;;;;12.20;99.90;;;;;;7349547;19;111500;-93
2023/01/07 02:20:25;;;;;;;;;;;12.20;99.90;;;;;;7347750;19;113846;-92
2023/01/07 02:23:22;;;;;;;;;;;12.20;99.90;;;;;;7347937;19;108531;-92
2023/01/07 02:26:04;;;;;;;;;;;12.20;99.90;;;;;;7353634;19;111714;-93
2023/01/07 02:28:51;;;;;;;;;;;12.20;99.90;;;;;;7350311;19;108384;-93
2023/01/07 02:31:36;;;;;;;;;;;12.20;99.90;;;;;;7347820;19;109547;-93
2023/01/07 02:34:24;;;;;;;;;;;12.20;99.90;;;;;;7347947;19;113214;-92
2023/01/07 02:36:53;;;;;;;;;;;12.20;99.90;;;;;;7350224;19;109357;-92
2023/01/07 02:39:29;;;;;;;;;;;12.20;99.90;;;;;;7350075;19;112364;-93
2023/01/07 02:41:58;;;;;;;;;;;12.20;99.90;;;;;;7348071;19;111552;-93
2023/01/07 02:44:43;;;;;;;;;;;12.20;99.90;;;;;;7349158;19;108552;-93
2023/01/07 02:47:16;;;;;;;;;;;12.30;99.90;;;;;;7355425;19;110265;-93
2023/01/07 02:49:45;;;;;;;;;;;12.30;99.90;;;;;;7347343;19;108420;-94
2023/01/07 02:52:16;;;;;;;;;;;12.30;99.90;;;;;;7349122;19;111642;-93
2023/01/07 02:54:44;;;;;;;;;;;12.30;99.90;;;;;;7348270;19;108242;-92
2023/01/07 02:57:20;;;;;;;;;;;12.30;99.90;;;;;;7349032;19;109130;-93
2023/01/07 03:00:03;;;;;;;;;;;12.30;99.90;;;;;;7350298;19;108283;-93
2023/01/07 03:02:33;;;;;;;;;;;12.30;99.90;;;;;;7346897;19;109248;-92
2023/01/07 03:05:07;;;;;;;;;;;12.40;99.90;;;;;;7347641;19;108406;-92
2023/01/07 03:07:34;;;;;;;;;;;12.30;99.90;;;;;;7347954;19;111271;-93
2023/01/07 03:10:04;;;;;;;;;;;12.30;99.90;;;;;;7353015;19;113315;-92
2023/01/07 03:12:44;;;;;;;;;;;12.30;99.90;;;;;;7348286;19;111494;-92
2023/01/07 03:15:18;;;;;;;;;;;12.30;99.90;;;;;;7346765;19;109973;-93
2023/01/07 03:17:54;;;;;;;;;;;12.40;99.90;;;;;;7347957;19;109049;-94
2023/01/07 03:20:23;;;;;;;;;;;12.40;99.90;;;;;;7346104;19;111734;-94
2023/01/07 03:22:51;;;;;;;;;;;12.30;99.90;;;;;;7346208;19;110191;-94
2023/01/07 03:25:20;;;;;;;;;;;12.40;99.90;;;;;;7347232;19;108899;-93
2023/01/07 03:27:47;;;;;;;;;;;12.40;99.90;;;;;;7342573;19;108733;-93
2023/01/07 03:30:16;;;;;;;;;;;12.40;99.90;;;;;;7341539;19;109524;-92
2023/01/07 03:32:50;;;;;;;;;;;12.40;99.90;;;;;;7346460;19;109593;-92
2023/01/07 03:35:19;;;;;;;;;;;12.40;99.90;;;;;;7340348;19;109894;-94
2023/01/07 03:37:47;;;;;;;;;;;12.40;99.90;;;;;;7341595;19;109001;-93
2023/01/07 03:40:15;;;;;;;;;;;12.40;99.90;;;;;;7341246;19;108550;-92
2023/01/07 03:42:45;;;;;;;;;;;12.40;99.90;;;;;;7340915;19;112420;-93
2023/01/07 03:45:16;;;;;;;;;;;12.40;99.90;;;;;;7342859;19;109567;-93
2023/01/07 03:47:45;;;;;;;;;;;12.40;99.90;;;;;;7340669;19;109997;-93
2023/01/07 03:50:13;;;;;;;;;;;12.40;99.90;;;;;;7340513;19;109733;-93
2023/01/07 03:52:40;;;;;;;;;;;12.40;99.90;;;;;;7337169;19;109046;-93
2023/01/07 03:55:08;;;;;;;;;;;12.40;99.90;;;;;;7346404;19;111938;-93
2023/01/07 03:57:35;;;;;;;;;;;12.40;99.90;;;;;;7341076;19;108757;-93
2023/01/07 04:00:06;;;;;;;;;;;12.40;99.90;;;;;;7341225;19;111631;-93
2023/01/07 04:02:33;;;;;;;;;;;12.40;99.90;;;;;;7343427;19;110651;-93
2023/01/07 04:05:00;;;;;;;;;;;12.40;99.90;;;;;;7342841;19;108414;-93
2023/01/07 04:07:27;;;;;;;;;;;12.40;99.90;;;;;;7340387;19;108453;-92
2023/01/07 04:09:54;;;;;;;;;;;12.40;99.90;;;;;;7339786;19;110480;-93
2023/01/07 04:12:21;;;;;;;;;;;12.30;99.90;;;;;;7340875;19;108628;-93
2023/01/07 04:14:48;;;;;;;;;;;12.30;99.90;;;;;;7339892;19;108828;-93
2023/01/07 04:17:15;;;;;;;;;;;12.30;99.90;;;;;;7345858;19;113456;-93
2023/01/07 04:19:42;;;;;;;;;;;12.30;99.90;;;;;;7340108;19;110564;-93
2023/01/07 04:22:09;;;;;;;;;;;12.20;99.90;;;;;;7341183;19;110825;-93
2023/01/07 04:24:36;;;;;;;;;;;12.10;99.90;;;;;;7342546;19;108822;-93
2023/01/07 04:27:03;;;;;;;;;;;12.00;99.90;;;;;;7339730;19;108608;-93
2023/01/07 04:29:30;;;;;;;;;;;12.10;99.90;;;;;;7341462;19;108799;-93
2023/01/07 04:31:57;;;;;;;;;;;12.10;99.90;;;;;;7341455;19;110124;-91
2023/01/07 04:34:24;;;;;;;;;;;12.10;99.90;;;;;;7346126;19;111811;-93
2023/01/07 04:36:51;;;;;;;;;;;12.10;99.90;;;;;;7345296;19;108843;-93
2023/01/07 04:39:18;;;;;;;;;;;12.10;99.90;;;;;;7350989;19;108510;-93
2023/01/07 04:41:45;;;;;;;;;;;12.10;99.90;;;;;;7344869;19;112904;-92
2023/01/07 04:44:14;;;;;;;;;;;12.10;99.90;;;;;;7346868;19;108822;-92
2023/01/07 04:46:41;;;;;;;;;;;12.10;99.90;;;;;;7346382;19;112212;-92
2023/01/07 04:49:08;;;;;;;;;;;12.10;99.90;;;;;;7344961;19;111798;-92
2023/01/07 04:51:35;;;;;;;;;;;12.10;99.90;;;;;;7345668;19;108608;-92
2023/01/07 04:54:02;;;;;;;;;;;12.10;99.90;;;;;;7345626;19;110419;-91
2023/01/07 04:56:29;;;;;;;;;;;12.10;99.90;;;;;;7344533;19;110214;-92
2023/01/07 04:58:56;;;;;;;;;;;12.10;99.90;;;;;;7350735;19;111238;-92
2023/01/07 05:01:24;;;;;;;;;;;12.10;99.90;;;;;;7344253;19;110145;-93
2023/01/07 05:03:51;;;;;;;;;;;12.00;99.90;;;;;;7349437;19;108571;-92
2023/01/07 05:06:18;;;;;;;;;;;11.90;99.90;;;;;;7353484;19;109925;-93
2023/01/07 05:08:45;;;;;;;;;;;11.90;99.90;;;;;;7352905;19;110170;-93
2023/01/07 05:11:12;;;;;;;;;;;11.80;99.90;;;;;;7350746;19;108552;-93
2023/01/07 05:13:39;;;;;;;;;;;11.80;99.90;;;;;;7350196;19;111693;-93
2023/01/07 05:16:06;;;;;;;;;;;11.80;99.90;;;;;;7355635;19;112820;-92
2023/01/07 05:18:33;;;;;;;;;;;11.70;99.90;;;;;;7351894;19;108498;-93
2023/01/07 05:21:00;;;;;;;;;;;11.70;99.90;;;;;;7359019;19;108577;-92
2023/01/07 05:23:27;;;;;;;;;;;11.70;99.90;;;;;;7352679;19;109568;-92
2023/01/07 05:25:54;;;;;;;;;;;11.70;99.90;;;;;;7352461;19;109216;-93
2023/01/07 05:28:21;;;;;;;;;;;11.70;99.90;;;;;;7352065;19;111530;-93
2023/01/07 05:30:48;;;;;;;;;;;11.70;99.90;;;;;;7351477;19;108527;-93
2023/01/07 05:33:15;;;;;;;;;;;11.70;99.90;;;;;;7351835;19;109339;-93
2023/01/07 05:35:42;;;;;;;;;;;11.70;99.90;;;;;;7350949;19;113058;-93
2023/01/07 05:38:09;;;;;;;;;;;11.70;99.90;;;;;;7353692;19;108637;-93
2023/01/07 05:40:36;;;;;;;;;;;11.70;99.90;;;;;;7349407;19;108525;-92
2023/01/07 05:43:03;;;;;;;;;;;11.70;99.90;;;;;;7358554;19;112798;-92
2023/01/07 05:45:30;;;;;;;;;;;11.70;99.90;;;;;;7351398;19;109277;-93
2023/01/07 05:47:57;;;;;;;;;;;11.70;99.90;;;;;;7350103;19;111637;-93
2023/01/07 05:50:24;;;;;;;;;;;11.70;99.90;;;;;;7350161;19;108663;-93
2023/01/07 05:52:51;;;;;;;;;;;11.70;99.90;;;;;;7349430;19;110422;-92
2023/01/07 05:55:18;;;;;;;;;;;11.60;99.90;;;;;;7349292;19;109208;-93
2023/01/07 05:57:45;;;;;;;;;;;11.60;99.90;;;;;;7349800;19;108335;-93
2023/01/07 06:00:13;;;;;;;;;;;11.60;99.90;;;;;;7351722;19;109032;-92
2023/01/07 06:02:40;;;;;;;;;;;11.60;99.90;;;;;;7349500;19;111632;-93
2023/01/07 06:05:07;;;;;;;;;;;11.60;99.90;;;;;;7353963;19;108551;-92
2023/01/07 06:07:34;;;;;;;;;;;11.50;99.90;;;;;;7349505;19;113307;-93
2023/01/07 06:10:01;;;;;;;;;;;11.50;99.90;;;;;;7350196;19;108362;-92
2023/01/07 06:12:29;;;;;;;;;;;11.50;99.90;;;;;;7351647;19;109291;-92
2023/01/07 06:14:56;;;;;;;;;;;11.50;99.90;;;;;;7348056;19;111691;-92
2023/01/07 06:17:23;;;;;;;;;;;11.40;99.90;;;;;;7352973;19;108478;-92
2023/01/07 06:19:50;;;;;;;;;;;11.40;99.90;;;;;;7350047;19;111881;-93
2023/01/07 06:22:17;;;;;;;;;;;11.40;99.90;;;;;;7348916;19;112839;-92
2023/01/07 06:24:44;;;;;;;;;;;11.40;99.90;;;;;;7350249;19;108945;-93
2023/01/07 06:27:11;;;;;;;;;;;11.40;99.90;;;;;;7354736;19;109725;-92
2023/01/07 06:29:38;;;;;;;;;;;11.30;99.90;;;;;;7349255;19;108713;-92
2023/01/07 06:32:05;;;;;;;;;;;11.30;99.90;;;;;;7349604;19;110294;-92
2023/01/07 06:34:32;;;;;;;;;;;11.30;99.90;;;;;;7349580;19;112551;-93
2023/01/07 06:36:59;;;;;;;;;;;11.20;99.90;;;;;;7349137;19;108710;-92
2023/01/07 06:39:26;;;;;;;;;;;11.20;99.90;;;;;;7348006;19;111122;-92
2023/01/07 06:41:53;;;;;;;;;;;11.20;99.90;;;;;;7349116;19;110244;-93
2023/01/07 06:44:20;;;;;;;;;;;11.20;99.90;;;;;;7348149;19;108805;-92
2023/01/07 06:46:47;;;;;;;;;;;11.20;99.90;;;;;;7355391;19;110496;-93
2023/01/07 06:49:15;;;;;;;;;;;11.10;99.90;;;;;;7348499;19;108490;-92
2023/01/07 06:51:42;;;;;;;;;;;11.10;99.90;;;;;;7347370;19;109584;-92
2023/01/07 06:54:09;;;;;;;;;;;11.10;99.90;;;;;;7348783;19;110475;-91
2023/01/07 06:56:36;;;;;;;;;;;11.10;99.90;;;;;;7351879;19;111473;-92
2023/01/07 06:59:03;;;;;;;;;;;11.10;99.90;;;;;;7348557;19;111641;-92
2023/01/07 07:01:30;;;;;;;;;;;11.10;99.90;;;;;;7346318;19;112751;-93
2023/01/07 07:03:57;;;;;;;;;;;11.10;99.90;;;;;;7348785;19;108287;-92
2023/01/07 07:06:24;;;;;;;;;;;11.10;99.90;;;;;;7349800;19;109052;-91
2023/01/07 07:08:51;;;;;;;;;;;11.10;99.90;;;;;;7353256;19;110454;-92
2023/01/07 07:11:18;;;;;;;;;;;11.10;99.90;;;;;;7350511;19;108726;-92
2023/01/07 07:13:45;;;;;;;;;;;11.10;99.90;;;;;;7345470;19;110561;-92
2023/01/07 07:16:12;;;;;;;;;;;11.10;99.90;;;;;;7347703;19;108409;-91
2023/01/07 07:18:39;;;;;;;;;;;11.10;99.90;;;;;;7345918;19;109513;-92
2023/01/07 07:21:06;;;;;;;;;;;11.10;99.90;;;;;;7346082;19;111560;-92
2023/01/07 07:23:33;;;;;;;;;;;11.10;99.90;;;;;;7348634;19;109160;-92
2023/01/07 07:26:00;;;;;;;;;;;11.10;99.90;;;;;;7344388;19;110537;-92
2023/01/07 07:28:27;;;;;;;;;;;11.10;99.90;;;;;;7344584;19;110156;-92
2023/01/07 07:30:54;;;;;;;;;;;11.10;99.90;;;;;;7353922;19;108597;-91
2023/01/07 07:33:21;;;;;;;;;;;11.10;99.90;;;;;;7348715;19;110120;-92
2023/01/07 07:35:48;;;;;;;;;;;11.10;99.90;;;;;;7346820;19;108478;-92
2023/01/07 07:38:17;;;;;;;;;;;11.10;99.90;;;;;;7350022;19;110530;-91
2023/01/07 07:40:44;;;;;;;;;;;11.10;99.90;;;;;;7344758;19;111625;-92
2023/01/07 07:43:12;;;;;;;;;;;11.10;99.90;;;;;;7348175;19;108345;-92
2023/01/07 07:45:42;;;;;;;;;;;11.10;99.90;;;;;;7347015;19;108538;-92
2023/01/07 07:48:11;;;;;;;;;;;11.10;99.90;;;;;;7345977;19;111581;-92
2023/01/07 07:50:38;;;;;;;;;;;11.10;99.90;;;;;;7346114;19;108504;-92
2023/01/07 07:53:08;;;;;;;;;;;11.10;99.90;;;;;;7351473;19;110804;-92
2023/01/07 07:55:37;;;;;;;;;;;11.10;99.90;;;;;;7345813;19;108717;-93
2023/01/07 07:58:04;;;;;;;;;;;11.10;99.90;;;;;;7345968;19;111491;-92
2023/01/07 08:00:31;;;;;;;;;;;11.20;99.90;;;;;;7345901;19;110876;-93
2023/01/07 08:02:58;;;;;;;;;;;11.10;99.90;;;;;;7346777;19;108476;-92
2023/01/07 08:05:26;;;;;;;;;;;11.20;99.90;;;;;;7344861;19;109074;-93
2023/01/07 08:07:53;;;;;;;;;;;11.20;99.90;;;;;;7345187;19;112797;-93
2023/01/07 08:10:21;;;;;;;;;;;11.20;99.90;;;;;;7346027;19;108221;-93
2023/01/07 08:12:49;;;;;;;;;;;11.20;99.90;;;;;;7346919;19;108726;-93
2023/01/07 08:15:16;;;;;;;;;;;11.20;99.90;;;;;;7352003;19;111688;-93
2023/01/07 08:17:44;;;;;;;;;;;11.20;99.90;;;;;;7345464;19;111732;-93
2023/01/07 08:20:17;;;;;;;;;;;11.30;99.90;;;;;;7347746;19;110212;-96
2023/01/07 08:22:50;;;;;;;;;;;11.30;99.90;;;;;;7350095;19;108372;-96
2023/01/07 08:25:18;;;;;;;;;;;11.30;99.90;;;;;;7346373;19;108620;-93
2023/01/07 08:27:45;;;;;;;;;;;11.30;99.90;;;;;;7344458;19;108834;-95
2023/01/07 08:30:12;;;;;;;;;;;11.30;99.90;;;;;;7345022;19;108710;-94
2023/01/07 08:32:39;;;;;;;;;;;11.30;99.90;;;;;;7347019;19;109563;-94
2023/01/07 08:35:06;;;;;;;;;;;11.30;99.90;;;;;;7345291;19;111995;-94
2023/01/07 08:37:33;;;;;;;;;;;11.30;99.90;;;;;;7349586;19;108023;-94
2023/01/07 08:40:02;;;;;;;;;;;11.30;99.90;;;;;;7352801;19;109722;-94
2023/01/07 08:42:31;;;;;;;;;;;11.30;99.90;;;;;;7353512;19;108571;-93
2023/01/07 08:44:58;;;;;;;;;;;11.30;99.90;;;;;;7350831;19;110420;-95
2023/01/07 08:47:26;;;;;;;;;;;11.40;99.90;;;;;;7351329;19;111638;-94
2023/01/07 08:49:53;;;;;;;;;;;11.40;99.90;;;;;;7352718;19;108520;-93
2023/01/07 08:52:21;;;;;;;;;;;11.40;99.90;;;;;;7351689;19;111602;-93
2023/01/07 08:54:48;;;;;;;;;;;11.40;99.90;;;;;;7352281;19;110513;-94
2023/01/07 08:57:16;;;;;;;;;;;11.40;99.90;;;;;;7356079;19;108906;-92
2023/01/07 08:59:43;;;;;;;;;;;11.40;99.90;;;;;;7351295;19;110663;-93
2023/01/07 09:02:14;;;;;;;;;;;11.50;99.90;;;;;;7350593;19;108682;-93
2023/01/07 09:04:42;;;;;;;;;;;11.50;99.90;;;;;;7350038;19;111238;-94
2023/01/07 09:07:09;;;;;;;;;;;11.50;99.90;;;;;;7352934;19;109196;-94
2023/01/07 09:09:36;;;;;;;;;;;11.50;99.90;;;;;;7350975;19;112333;-94
2023/01/07 09:12:04;;;;;;;;;;;11.50;99.90;;;;;;7351300;19;108477;-94
2023/01/07 09:14:31;;;;;;;;;;;11.60;99.90;;;;;;7351003;19;112480;-94
2023/01/07 09:16:58;;;;;;;;;;;11.70;99.90;;;;;;7351098;19;108639;-93
2023/01/07 09:19:25;;;;;;;;;;;11.70;99.90;;;;;;7355121;19;108276;-93
2023/01/07 09:21:52;;;;;;;;;;;11.70;99.90;;;;;;7349881;19;108678;-93
2023/01/07 09:24:19;;;;;;;;;;;11.80;99.90;;;;;;7352190;19;112004;-93
2023/01/07 09:26:46;;;;;;;;;;;11.80;99.90;;;;;;7349253;19;112653;-95
2023/01/07 09:29:13;;;;;;;;;;;11.90;99.90;;;;;;7353723;19;108239;-94
2023/01/07 09:31:39;;;;;;;;;;;11.90;99.90;;;;;;7350738;19;108248;-95
2023/01/07 09:34:06;;;;;;;;;;;12.00;99.90;;;;;;7351291;19;109137;-95
2023/01/07 09:36:33;;;;;;;;;;;12.00;99.90;;;;;;7353344;19;108426;-95
2023/01/07 09:39:01;;;;;;;;;;;12.10;99.90;;;;;;7352544;19;108725;-94
2023/01/07 09:41:36;;;;;;;;;;;12.00;99.90;;;;;;7354228;19;109696;-93
2023/01/07 09:44:18;;;;;;;;;;;12.10;99.90;;;;;;7348979;19;111608;-94
2023/01/07 09:46:46;;;;;;;;;;;12.10;99.90;;;;;;7345650;19;112796;-94
2023/01/07 09:49:18;;;;;;;;;;;12.20;99.90;;;;;;7348598;19;108400;-96
2023/01/07 09:51:49;;;;;;;;;;;12.20;99.90;;;;;;7349614;19;110143;-96
2023/01/07 09:54:37;;;;;;;;;;;12.20;99.90;;;;;;7349833;19;112636;-93
2023/01/07 09:57:04;;;;;;;;;;;12.20;99.90;;;;;;7349038;19;108526;-91
2023/01/07 09:59:31;;;;;;;;;;;12.20;99.90;;;;;;7349313;19;110235;-92
2023/01/07 10:02:07;;;;;;;;;;;12.20;99.90;;;;;;7348323;19;109566;-94
2023/01/07 10:04:41;;;;;;;;;;;12.20;99.90;;;;;;7354892;19;108598;-94
2023/01/07 10:07:08;;;;;;;;;;;12.20;99.90;;;;;;7349725;19;109850;-95
2023/01/07 10:09:50;;;;;;;;;;;12.20;99.90;;;;;;7349203;19;108227;-92
2023/01/07 10:12:35;;;;;;;;;;;12.30;99.90;;;;;;7340818;19;109577;-89
2023/01/07 10:15:15;;;;;;;;;;;12.30;99.90;;;;;;7339432;19;111242;-89
2023/01/07 10:17:42;;;;;;;;;;;12.40;99.90;;;;;;7340540;19;108888;-89
2023/01/07 10:20:29;;;;;;;;;;;12.40;99.90;;;;;;7336250;19;111407;-89
2023/01/07 10:22:59;;;;;;;;;;;12.40;99.90;;;;;;7340127;19;113361;-88
2023/01/07 10:25:40;;;;;;;;;;;12.40;99.90;;;;;;7340709;19;112737;-88
2023/01/07 10:28:11;;;;;;;;;;;12.50;99.90;;;;;;7344919;19;109208;-89
2023/01/07 10:30:41;;;;;;;;;;;12.50;99.90;;;;;;7338699;19;108545;-89
2023/01/07 10:33:23;;;;;;;;;;;12.60;99.90;;;;;;7342542;19;109026;-87
2023/01/07 10:36:07;;;;;;;;;;;12.60;99.90;;;;;;7340178;19;110418;-89
2023/01/07 10:38:36;;;;;;;;;;;12.60;99.90;;;;;;7339731;19;108471;-88
2023/01/07 10:41:06;;;;;;;;;;;12.70;99.90;;;;;;7336173;19;110326;-87
2023/01/07 10:43:44;;;;;;;;;;;12.70;99.90;;;;;;7333375;19;110709;-88
2023/01/07 10:46:17;;;;;;;;;;;12.70;99.90;;;;;;7340073;19;108548;-88
2023/01/07 10:48:44;;;;;;;;;;;12.80;99.90;;;;;;7336958;19;111575;-90
2023/01/07 10:51:22;;;;;;;;;;;12.80;99.90;;;;;;7345121;19;110755;-87
2023/01/07 10:53:59;;;;;;;;;;;12.80;99.90;;;;;;7341439;19;109322;-88
2023/01/07 10:56:36;;;;;;;;;;;12.90;99.90;;;;;;7338131;19;109979;-88
2023/01/07 10:59:04;;;;;;;;;;;12.90;99.90;;;;;;7340618;19;108512;-87
2023/01/07 11:01:31;;;;;;;;;;;12.80;99.90;;;;;;7336887;19;109759;-89
2023/01/07 11:03:58;;;;;;;;;;;12.90;99.90;;;;;;7340504;19;110186;-89
2023/01/07 11:06:33;;;;;;;;;;;12.90;99.90;;;;;;7339331;19;109971;-89
2023/01/07 11:09:03;;;;;;;;;;;12.90;99.90;;;;;;7341300;19;109394;-89
2023/01/07 11:11:31;;;;;;;;;;;13.00;99.90;;;;;;7341672;19;114246;-88
2023/01/07 11:14:00;;;;;;;;;;;13.00;99.90;;;;;;7340095;19;111212;-88
2023/01/07 11:16:32;;;;;;;;;;;13.00;99.90;;;;;;7336791;19;110045;-89
2023/01/07 11:19:03;;;;;;;;;;;13.10;99.90;;;;;;7341345;19;108534;-88
2023/01/07 11:21:38;;;;;;;;;;;13.10;99.90;;;;;;7336038;19;111260;-89
2023/01/07 11:24:31;;;;;;;;;;;13.10;99.90;;;;;;7341383;19;109904;-89
2023/01/07 11:27:15;;;;;;;;;;;13.10;99.90;;;;;;7336063;19;108621;-89
2023/01/07 11:29:43;;;;;;;;;;;13.30;99.90;;;;;;7337853;19;109275;-90
2023/01/07 11:32:37;;;;;;;;;;;13.20;99.90;;;;;;7337763;19;113814;-90
2023/01/07 11:35:06;;;;;;;;;;;13.20;99.90;;;;;;7341584;19;108585;-88
2023/01/07 11:37:38;;;;;;;;;;;13.30;99.90;;;;;;7337012;19;113753;-89
2023/01/07 11:40:11;;;;;;;;;;;13.40;99.90;;;;;;7340998;19;108787;-89
2023/01/07 11:42:50;;;;;;;;;;;13.40;99.90;;;;;;7337562;19;111789;-90
2023/01/07 11:45:17;;;;;;;;;;;13.50;99.90;;;;;;7338134;19;110567;-89
2023/01/07 11:47:53;;;;;;;;;;;13.50;99.90;;;;;;7339849;19;109161;-89
2023/01/07 11:50:25;;;;;;;;;;;13.60;99.90;;;;;;7337941;19;109678;-89
2023/01/07 11:52:56;;;;;;;;;;;13.70;99.90;;;;;;7340965;19;110397;-88
2023/01/07 11:55:23;;;;;;;;;;;13.70;99.90;;;;;;7338569;19;108562;-88
2023/01/07 11:57:54;;;;;;;;;;;13.70;99.90;;;;;;7344370;19;109520;-89
2023/01/07 12:00:40;;;;;;;;;;;13.80;99.90;;;;;;7335104;19;109811;-90
2023/01/07 12:03:11;;;;;;;;;;;13.80;99.90;;;;;;7340472;19;112155;-88
2023/01/07 12:05:39;;;;;;;;;;;13.90;99.90;;;;;;7337134;19;112578;-89
2023/01/07 12:08:16;;;;;;;;;;;14.00;99.90;;;;;;7340091;19;112055;-90
2023/01/07 12:10:43;;;;;;;;;;;14.00;99.90;;;;;;7336736;19;109256;-89
2023/01/07 12:13:20;;;;;;;;;;;14.00;99.90;;;;;;7339384;19;110878;-91
2023/01/07 12:16:03;;;;;;;;;;;14.00;99.90;;;;;;7338982;19;108646;-90
2023/01/07 12:18:39;;;;;;;;;;;14.10;99.90;;;;;;7338491;19;111703;-91
2023/01/07 12:21:22;;;;;;;;;;;14.10;99.90;;;;;;7343590;19;111562;-89
2023/01/07 12:23:48;;;;;;;;;;;14.10;99.90;;;;;;7341218;19;109407;-91
2023/01/07 12:26:18;;;;;;;;;;;14.10;99.90;;;;;;7337334;19;109618;-89
2023/01/07 12:28:51;;;;;;;;;;;14.00;99.90;;;;;;7336141;19;108642;-89
2023/01/07 12:31:37;;;;;;;;;;;14.10;99.90;;;;;;7337987;19;111150;-90
2023/01/07 12:34:13;;;;;;;;;;;14.10;99.90;;;;;;7338667;19;112922;-89
2023/01/07 12:37:00;;;;;;;;;;;14.00;99.90;;;;;;7336454;19;108646;-89
2023/01/07 12:39:34;;;;;;;;;;;14.00;99.90;;;;;;7335648;19;109046;-90
2023/01/07 12:42:12;;;;;;;;;;;13.90;99.90;;;;;;7337962;19;114883;-89
2023/01/07 12:44:42;;;;;;;;;;;13.90;99.90;;;;;;7342673;19;109437;-89
2023/01/07 12:47:11;;;;;;;;;;;13.90;99.90;;;;;;7336299;19;109858;-88
2023/01/07 12:50:01;;;;;;;;;;;14.00;99.90;;;;;;7336337;19;110520;-89
2023/01/07 12:52:28;;;;;;;;;;;14.00;99.90;;;;;;7335019;19;112042;-89
2023/01/07 12:55:01;;;;;;;;;;;14.10;99.90;;;;;;7335744;19;112719;-88
2023/01/07 12:57:29;;;;;;;;;;;14.00;99.90;;;;;;7338169;19;108900;-89
2023/01/07 12:59:56;;;;;;;;;;;14.00;99.90;;;;;;7336179;19;111603;-89
2023/01/07 13:02:29;;;;;;;;;;;14.00;99.90;;;;;;7333980;19;110419;-90
2023/01/07 13:05:19;;;;;;;;;;;13.90;99.90;;;;;;7338036;19;111819;-89
2023/01/07 13:07:58;;;;;;;;;;;13.90;99.90;;;;;;7340030;19;112222;-89
2023/01/07 13:10:40;;;;;;;;;;;13.80;99.90;;;;;;7334850;19;108937;-88
2023/01/07 13:13:25;;;;;;;;;;;13.70;99.90;;;;;;7339009;19;108837;-89
2023/01/07 13:15:52;;;;;;;;;;;13.70;99.90;;;;;;7335770;19;110412;-89
2023/01/07 13:18:20;;;;;;;;;;;13.60;99.90;;;;;;7335779;19;108356;-88
2023/01/07 13:20:54;;;;;;;;;;;13.60;99.90;;;;;;7336403;19;111402;-89
2023/01/07 13:23:21;;;;;;;;;;;13.60;99.90;;;;;;7334327;19;112080;-88
2023/01/07 13:26:03;;;;;;;;;;;13.60;99.90;;;;;;7344702;19;109754;-89
2023/01/07 13:28:43;;;;;;;;;;;13.60;99.90;;;;;;7346844;19;111762;-88
2023/01/07 13:31:25;;;;;;;;;;;13.70;99.90;;;;;;7340226;19;108568;-88
2023/01/07 13:33:58;;;;;;;;;;;13.70;99.90;;;;;;7336817;19;111158;-88
2023/01/07 13:36:28;;;;;;;;;;;13.60;99.90;;;;;;7337894;19;110039;-88
2023/01/07 13:38:59;;;;;;;;;;;13.60;99.90;;;;;;7341827;19;108472;-88
2023/01/07 13:41:33;;;;;;;;;;;13.60;99.90;;;;;;7337542;19;112047;-89
2023/01/07 13:44:18;;;;;;;;;;;13.70;99.90;;;;;;7336849;19;110857;-88
2023/01/07 13:46:46;;;;;;;;;;;13.70;99.90;;;;;;7337148;19;109573;-88
2023/01/07 13:49:32;;;;;;;;;;;13.70;99.90;;;;;;7341051;19;109455;-87
2023/01/07 13:52:15;;;;;;;;;;;13.70;99.90;;;;;;7345563;19;109377;-88
2023/01/07 13:54:51;;;;;;;;;;;13.70;99.90;;;;;;7342638;19;111637;-88
2023/01/07 13:57:30;;;;;;;;;;;13.70;99.90;;;;;;7341504;19;109810;-88
2023/01/07 14:00:02;;;;;;;;;;;13.70;99.90;;;;;;7339170;19;109367;-87
2023/01/07 14:02:49;;;;;;;;;;;13.70;99.90;;;;;;7339934;19;108323;-87
2023/01/07 14:05:16;;;;;;;;;;;13.60;99.90;;;;;;7338831;19;109155;-87
2023/01/07 14:07:44;;;;;;;;;;;13.60;99.90;;;;;;7339179;19;109053;-88
2023/01/07 14:10:17;;;;;;;;;;;13.60;99.90;;;;;;7340186;19;111854;-89
2023/01/07 14:12:51;;;;;;;;;;;13.50;99.90;;;;;;7340195;19;110263;-87
2023/01/07 14:15:28;;;;;;;;;;;13.40;99.90;;;;;;7346160;19;108760;-88
2023/01/07 14:18:02;;;;;;;;;;;13.40;99.90;;;;;;7340269;19;110872;-88
2023/01/07 14:20:38;;;;;;;;;;;13.40;99.90;;;;;;7339851;19;108810;-88
2023/01/07 14:23:24;;;;;;;;;;;13.30;99.90;;;;;;7339674;19;109065;-87
2023/01/07 14:26:04;;;;;;;;;;;13.30;99.90;;;;;;7340046;19;110495;-88